This is the latest recevied weather packets stored in our database for station/object N8TWM-13. If no packets are shown the sender has not sent any weather packets the latest 10 day(s).
| Time | Temp. | Humidity | Pressure | Rain* | Wind** | Luminosity | Snow |
|---|---|---|---|---|---|---|---|
| 1778006893 | 17.78° C | 80% | 1008.5 hPa | 0 mm | - | 285 W/m² | - |
| 1778006590 | 17.78° C | 81% | 1008.3 hPa | 0 mm | - | 278 W/m² | - |
| 1778006287 | 17.22° C | 81% | 1008.3 hPa | 0 mm | - | 287 W/m² | - |
| 1778005984 | 17.22° C | 82% | 1008.1 hPa | 1.27 mm | - | 239 W/m² | - |
| 1778005681 | 17.22° C | 80% | 1008.4 hPa | 1.27 mm | - | 95 W/m² | - |
| 1778005377 | 18.33° C | 77% | 1008.3 hPa | 1.27 mm | - | 38 W/m² | - |
| 1778005074 | 18.89° C | 73% | 1008.3 hPa | 0 mm | - | 23 W/m² | - |
| 1778004772 | 18.89° C | 72% | 1008.3 hPa | 0 mm | - | 71 W/m² | - |
| 1778004468 | 20° C | 70% | 1008.4 hPa | 0 mm | - | 275 W/m² | - |
| 1778004165 | 18.89° C | 71% | 1008.5 hPa | 0 mm | - | 445 W/m² | - |
| 1778003861 | 18.33° C | 74% | 1008.3 hPa | 0 mm | - | 424 W/m² | - |
| 1778003558 | 17.78° C | 74% | 1008.5 hPa | 0 mm | - | 92 W/m² | - |
| 1778003254 | 17.78° C | 73% | 1008.6 hPa | 0 mm | - | 53 W/m² | - |
| 1778002952 | 18.33° C | 74% | 1008.4 hPa | 0 mm | - | 62 W/m² | - |
| 1778002647 | 18.33° C | 74% | 1008.5 hPa | 0 mm | - | 74 W/m² | - |
| 1778002344 | 18.33° C | 74% | 1008.4 hPa | 0 mm | - | 108 W/m² | - |
| 1778002041 | 18.33° C | 74% | 1008.6 hPa | 0 mm | - | 128 W/m² | - |
| 1778001738 | 17.78° C | 74% | 1008.1 hPa | 0 mm | - | 127 W/m² | - |
| 1778001433 | 17.78° C | 74% | 1008.5 hPa | 0 mm | - | 75 W/m² | - |
| 1778001131 | 17.78° C | 74% | 1008.5 hPa | 0 mm | - | 120 W/m² | - |
| 1778000827 | 17.78° C | 75% | 1008.9 hPa | 0 mm | - | 75 W/m² | - |
| 1778000524 | 17.78° C | 75% | 1008.6 hPa | 0 mm | - | 43 W/m² | - |
| 1778000224 | 17.78° C | 74% | 1008.7 hPa | 0 mm | - | 78 W/m² | - |
| 1777999920 | 17.78° C | 74% | 1008.6 hPa | 0 mm | - | 48 W/m² | - |
| 1777999616 | 17.78° C | 74% | 1008.7 hPa | 0 mm | - | 32 W/m² | - |
* Rain latest hour (hover to see other rain measurements)
** Current wind speed in m/s (hover to see current wind gust speed)